sensor_id;sensor_type;location;lat;lon;timestamp;P1;durP1;ratioP1;P2;durP2;ratioP2
41556;SDS011;27720;51.992;5.890;2024-01-30T10:44:43;10.18;;;3.20;;
41556;SDS011;27720;51.992;5.890;2024-01-30T10:47:21;10.35;;;4.35;;
41556;SDS011;27720;51.992;5.890;2024-01-30T10:49:53;11.25;;;5.57;;
41556;SDS011;27720;51.992;5.890;2024-01-30T10:52:20;7.68;;;4.45;;
41556;SDS011;27720;51.992;5.890;2024-01-30T10:54:47;9.18;;;4.45;;
41556;SDS011;27720;51.992;5.890;2024-01-30T10:57:15;8.75;;;5.15;;
41556;SDS011;27720;51.992;5.890;2024-01-30T10:59:41;10.80;;;4.72;;
41556;SDS011;27720;51.992;5.890;2024-01-30T11:02:09;7.80;;;4.28;;
41556;SDS011;27720;51.992;5.890;2024-01-30T11:04:40;10.38;;;5.20;;
41556;SDS011;27720;51.992;5.890;2024-01-30T11:07:16;8.32;;;4.38;;
41556;SDS011;27720;51.992;5.890;2024-01-30T11:10:03;6.82;;;3.72;;
41556;SDS011;27720;51.992;5.890;2024-01-30T11:12:29;8.63;;;4.05;;
41556;SDS011;27720;51.992;5.890;2024-01-30T11:15:01;10.38;;;4.50;;
41556;SDS011;27720;51.992;5.890;2024-01-30T11:22:41;7.47;;;4.22;;
41556;SDS011;27720;51.992;5.890;2024-01-30T11:25:12;9.23;;;5.32;;
41556;SDS011;27720;51.992;5.890;2024-01-30T11:27:42;9.18;;;4.55;;
41556;SDS011;27720;51.992;5.890;2024-01-30T11:30:09;6.88;;;3.85;;
41556;SDS011;27720;51.992;5.890;2024-01-30T11:32:35;11.15;;;5.85;;
41556;SDS011;27720;51.992;5.890;2024-01-30T11:35:05;7.40;;;4.00;;
41556;SDS011;27720;51.992;5.890;2024-01-30T11:37:31;9.85;;;5.65;;
41556;SDS011;27720;51.992;5.890;2024-01-30T11:40:01;14.60;;;6.45;;
41556;SDS011;27720;51.992;5.890;2024-01-30T11:42:29;14.13;;;7.15;;
41556;SDS011;27720;51.992;5.890;2024-01-30T11:44:55;14.10;;;6.80;;
41556;SDS011;27720;51.992;5.890;2024-01-30T11:47:22;13.55;;;5.95;;
41556;SDS011;27720;51.992;5.890;2024-01-30T11:49:47;12.98;;;5.97;;
41556;SDS011;27720;51.992;5.890;2024-01-30T11:52:13;10.18;;;5.47;;
41556;SDS011;27720;51.992;5.890;2024-01-30T11:54:39;9.48;;;5.45;;
41556;SDS011;27720;51.992;5.890;2024-01-30T11:57:05;13.70;;;5.15;;
41556;SDS011;27720;51.992;5.890;2024-01-30T11:59:31;10.48;;;5.25;;
41556;SDS011;27720;51.992;5.890;2024-01-30T12:01:57;8.68;;;4.68;;
41556;SDS011;27720;51.992;5.890;2024-01-30T12:04:23;11.32;;;4.90;;
41556;SDS011;27720;51.992;5.890;2024-01-30T12:06:52;11.50;;;4.90;;
41556;SDS011;27720;51.992;5.890;2024-01-30T12:09:18;8.73;;;4.82;;
41556;SDS011;27720;51.992;5.890;2024-01-30T12:11:44;8.50;;;5.30;;
41556;SDS011;27720;51.992;5.890;2024-01-30T12:14:11;11.00;;;5.45;;
41556;SDS011;27720;51.992;5.890;2024-01-30T12:16:37;10.02;;;4.28;;
41556;SDS011;27720;51.992;5.890;2024-01-30T12:19:03;6.93;;;4.15;;
41556;SDS011;27720;51.992;5.890;2024-01-30T12:21:29;8.18;;;3.83;;
41556;SDS011;27720;51.992;5.890;2024-01-30T12:23:56;10.35;;;4.63;;
41556;SDS011;27720;51.992;5.890;2024-01-30T12:26:23;7.13;;;4.97;;
41556;SDS011;27720;51.992;5.890;2024-01-30T12:28:51;7.57;;;4.38;;
41556;SDS011;27720;51.992;5.890;2024-01-30T12:31:31;7.25;;;3.85;;
41556;SDS011;27720;51.992;5.890;2024-01-30T12:33:59;10.32;;;5.30;;
41556;SDS011;27720;51.992;5.890;2024-01-30T12:36:25;10.25;;;4.63;;
41556;SDS011;27720;51.992;5.890;2024-01-30T12:38:51;8.00;;;4.50;;
41556;SDS011;27720;51.992;5.890;2024-01-30T12:41:17;7.38;;;3.08;;
41556;SDS011;27720;51.992;5.890;2024-01-30T12:43:43;11.18;;;4.00;;
41556;SDS011;27720;51.992;5.890;2024-01-30T12:46:09;4.10;;;1.88;;
41556;SDS011;27720;51.992;5.890;2024-01-30T12:48:35;7.32;;;2.60;;
41556;SDS011;27720;51.992;5.890;2024-01-30T12:51:01;4.65;;;2.00;;
41556;SDS011;27720;51.992;5.890;2024-01-30T12:53:27;5.03;;;1.70;;
41556;SDS011;27720;51.992;5.890;2024-01-30T12:55:53;3.65;;;1.55;;
41556;SDS011;27720;51.992;5.890;2024-01-30T12:58:19;3.58;;;1.30;;
41556;SDS011;27720;51.992;5.890;2024-01-30T13:00:45;3.65;;;1.20;;
41556;SDS011;27720;51.992;5.890;2024-01-30T13:03:12;3.47;;;1.23;;
41556;SDS011;27720;51.992;5.890;2024-01-30T13:05:37;2.22;;;1.00;;
41556;SDS011;27720;51.992;5.890;2024-01-30T13:08:03;3.05;;;1.33;;
41556;SDS011;27720;51.992;5.890;2024-01-30T13:10:29;2.83;;;1.13;;
41556;SDS011;27720;51.992;5.890;2024-01-30T13:12:55;4.43;;;0.77;;
41556;SDS011;27720;51.992;5.890;2024-01-30T13:15:21;1.10;;;0.65;;
41556;SDS011;27720;51.992;5.890;2024-01-30T13:17:48;2.00;;;0.70;;
41556;SDS011;27720;51.992;5.890;2024-01-30T13:20:14;4.03;;;1.13;;
41556;SDS011;27720;51.992;5.890;2024-01-30T13:22:44;2.13;;;0.70;;
41556;SDS011;27720;51.992;5.890;2024-01-30T13:25:10;4.85;;;1.20;;
41556;SDS011;27720;51.992;5.890;2024-01-30T13:27:39;1.52;;;0.82;;
41556;SDS011;27720;51.992;5.890;2024-01-30T13:30:06;3.58;;;0.50;;
41556;SDS011;27720;51.992;5.890;2024-01-30T13:32:33;1.58;;;0.60;;
41556;SDS011;27720;51.992;5.890;2024-01-30T13:34:58;1.27;;;0.70;;
41556;SDS011;27720;51.992;5.890;2024-01-30T13:37:24;1.00;;;0.40;;
41556;SDS011;27720;51.992;5.890;2024-01-30T13:39:50;0.90;;;0.68;;
41556;SDS011;27720;51.992;5.890;2024-01-30T13:42:15;2.50;;;0.60;;
41556;SDS011;27720;51.992;5.890;2024-01-30T13:44:41;3.63;;;0.73;;
41556;SDS011;27720;51.992;5.890;2024-01-30T13:47:09;2.20;;;1.00;;
41556;SDS011;27720;51.992;5.890;2024-01-30T13:49:35;4.47;;;1.33;;
41556;SDS011;27720;51.992;5.890;2024-01-30T13:52:00;4.32;;;0.93;;
41556;SDS011;27720;51.992;5.890;2024-01-30T13:54:26;6.07;;;1.60;;
41556;SDS011;27720;51.992;5.890;2024-01-30T13:56:52;6.15;;;1.88;;
41556;SDS011;27720;51.992;5.890;2024-01-30T13:59:17;6.85;;;1.67;;
41556;SDS011;27720;51.992;5.890;2024-01-30T14:01:51;3.15;;;1.45;;
41556;SDS011;27720;51.992;5.890;2024-01-30T14:04:17;3.88;;;1.60;;
41556;SDS011;27720;51.992;5.890;2024-01-30T14:06:43;3.03;;;1.67;;
41556;SDS011;27720;51.992;5.890;2024-01-30T14:09:08;8.55;;;1.95;;
41556;SDS011;27720;51.992;5.890;2024-01-30T14:11:35;4.80;;;1.90;;
41556;SDS011;27720;51.992;5.890;2024-01-30T14:14:01;6.03;;;2.90;;
41556;SDS011;27720;51.992;5.890;2024-01-30T14:16:26;4.88;;;2.17;;
41556;SDS011;27720;51.992;5.890;2024-01-30T14:18:53;5.35;;;2.38;;
41556;SDS011;27720;51.992;5.890;2024-01-30T14:21:19;5.35;;;2.10;;
41556;SDS011;27720;51.992;5.890;2024-01-30T14:23:45;4.35;;;2.15;;
41556;SDS011;27720;51.992;5.890;2024-01-30T14:26:12;8.13;;;2.22;;
41556;SDS011;27720;51.992;5.890;2024-01-30T14:28:38;7.45;;;2.55;;
41556;SDS011;27720;51.992;5.890;2024-01-30T14:31:03;5.20;;;2.15;;
41556;SDS011;27720;51.992;5.890;2024-01-30T14:33:30;6.07;;;2.00;;
41556;SDS011;27720;51.992;5.890;2024-01-30T14:35:55;3.97;;;2.00;;
41556;SDS011;27720;51.992;5.890;2024-01-30T14:38:21;4.68;;;2.42;;
41556;SDS011;27720;51.992;5.890;2024-01-30T14:40:47;4.55;;;1.90;;
41556;SDS011;27720;51.992;5.890;2024-01-30T14:43:12;5.68;;;1.95;;
41556;SDS011;27720;51.992;5.890;2024-01-30T14:45:39;4.20;;;2.03;;
41556;SDS011;27720;51.992;5.890;2024-01-30T14:48:07;4.22;;;2.03;;
41556;SDS011;27720;51.992;5.890;2024-01-30T14:50:34;3.95;;;1.77;;
41556;SDS011;27720;51.992;5.890;2024-01-30T14:52:59;4.88;;;1.80;;
41556;SDS011;27720;51.992;5.890;2024-01-30T14:55:25;5.20;;;2.30;;
41556;SDS011;27720;51.992;5.890;2024-01-30T14:57:51;3.88;;;1.95;;
41556;SDS011;27720;51.992;5.890;2024-01-30T15:00:16;5.13;;;1.60;;
41556;SDS011;27720;51.992;5.890;2024-01-30T15:02:43;10.00;;;2.65;;
41556;SDS011;27720;51.992;5.890;2024-01-30T15:05:09;2.63;;;1.60;;
41556;SDS011;27720;51.992;5.890;2024-01-30T15:07:36;6.60;;;1.40;;
41556;SDS011;27720;51.992;5.890;2024-01-30T15:10:02;4.32;;;1.67;;
41556;SDS011;27720;51.992;5.890;2024-01-30T15:12:28;1.83;;;1.23;;
41556;SDS011;27720;51.992;5.890;2024-01-30T15:14:56;5.35;;;1.67;;
41556;SDS011;27720;51.992;5.890;2024-01-30T15:17:22;4.15;;;1.70;;
41556;SDS011;27720;51.992;5.890;2024-01-30T15:19:47;2.78;;;1.27;;
41556;SDS011;27720;51.992;5.890;2024-01-30T15:22:13;2.33;;;1.02;;
41556;SDS011;27720;51.992;5.890;2024-01-30T15:24:39;3.28;;;1.10;;
41556;SDS011;27720;51.992;5.890;2024-01-30T15:27:05;4.97;;;1.20;;
41556;SDS011;27720;51.992;5.890;2024-01-30T15:29:30;4.55;;;1.25;;
41556;SDS011;27720;51.992;5.890;2024-01-30T15:31:57;2.97;;;1.20;;
41556;SDS011;27720;51.992;5.890;2024-01-30T15:34:22;2.30;;;1.10;;
41556;SDS011;27720;51.992;5.890;2024-01-30T15:36:48;2.80;;;1.00;;
41556;SDS011;27720;51.992;5.890;2024-01-30T15:39:14;3.22;;;1.13;;
41556;SDS011;27720;51.992;5.890;2024-01-30T15:41:42;3.83;;;1.15;;
41556;SDS011;27720;51.992;5.890;2024-01-30T15:44:08;1.45;;;0.90;;
41556;SDS011;27720;51.992;5.890;2024-01-30T15:46:33;3.97;;;1.30;;
41556;SDS011;27720;51.992;5.890;2024-01-30T15:48:59;2.85;;;1.42;;
41556;SDS011;27720;51.992;5.890;2024-01-30T15:51:26;2.33;;;1.52;;
41556;SDS011;27720;51.992;5.890;2024-01-30T15:53:52;2.90;;;1.17;;
41556;SDS011;27720;51.992;5.890;2024-01-30T15:56:18;3.90;;;2.20;;
41556;SDS011;27720;51.992;5.890;2024-01-30T15:58:44;5.00;;;2.45;;
41556;SDS011;27720;51.992;5.890;2024-01-30T16:01:14;7.07;;;1.73;;
41556;SDS011;27720;51.992;5.890;2024-01-30T16:03:43;5.28;;;2.33;;
41556;SDS011;27720;51.992;5.890;2024-01-30T16:06:12;4.97;;;2.15;;
41556;SDS011;27720;51.992;5.890;2024-01-30T16:08:39;3.60;;;2.13;;
41556;SDS011;27720;51.992;5.890;2024-01-30T16:11:06;5.25;;;2.78;;
41556;SDS011;27720;51.992;5.890;2024-01-30T16:13:33;3.53;;;2.33;;
41556;SDS011;27720;51.992;5.890;2024-01-30T16:16:03;3.35;;;1.65;;
41556;SDS011;27720;51.992;5.890;2024-01-30T16:18:30;3.92;;;1.83;;
41556;SDS011;27720;51.992;5.890;2024-01-30T16:20:57;3.53;;;1.90;;
41556;SDS011;27720;51.992;5.890;2024-01-30T16:23:23;3.22;;;2.03;;
41556;SDS011;27720;51.992;5.890;2024-01-30T16:25:58;3.42;;;1.95;;
41556;SDS011;27720;51.992;5.890;2024-01-30T16:29:10;4.95;;;2.47;;
41556;SDS011;27720;51.992;5.890;2024-01-30T16:43:40;5.85;;;2.55;;
41556;SDS011;27720;51.992;5.890;2024-01-30T16:47:25;6.32;;;2.92;;
41556;SDS011;27720;51.992;5.890;2024-01-30T16:55:37;5.88;;;3.30;;
41556;SDS011;27720;51.992;5.890;2024-01-30T17:01:41;3.25;;;1.83;;
41556;SDS011;27720;51.992;5.890;2024-01-30T17:04:14;5.38;;;2.72;;
41556;SDS011;27720;51.992;5.890;2024-01-30T17:06:41;6.07;;;3.03;;
41556;SDS011;27720;51.992;5.890;2024-01-30T17:09:07;4.78;;;2.53;;
41556;SDS011;27720;51.992;5.890;2024-01-30T17:11:32;6.15;;;3.67;;
41556;SDS011;27720;51.992;5.890;2024-01-30T17:13:58;6.45;;;3.75;;
41556;SDS011;27720;51.992;5.890;2024-01-30T17:16:24;8.23;;;3.75;;
41556;SDS011;27720;51.992;5.890;2024-01-30T17:18:49;12.10;;;5.28;;
41556;SDS011;27720;51.992;5.890;2024-01-30T17:21:16;8.27;;;3.83;;
41556;SDS011;27720;51.992;5.890;2024-01-30T17:23:42;8.57;;;5.10;;
41556;SDS011;27720;51.992;5.890;2024-01-30T17:26:09;7.70;;;4.38;;
41556;SDS011;27720;51.992;5.890;2024-01-30T17:28:35;5.68;;;3.28;;
41556;SDS011;27720;51.992;5.890;2024-01-30T17:31:01;5.93;;;3.42;;
41556;SDS011;27720;51.992;5.890;2024-01-30T17:33:27;6.90;;;4.43;;
41556;SDS011;27720;51.992;5.890;2024-01-30T17:35:53;8.25;;;3.55;;
41556;SDS011;27720;51.992;5.890;2024-01-30T17:38:19;7.68;;;4.10;;
41556;SDS011;27720;51.992;5.890;2024-01-30T17:40:44;6.18;;;3.72;;
41556;SDS011;27720;51.992;5.890;2024-01-30T17:43:10;6.88;;;3.25;;
41556;SDS011;27720;51.992;5.890;2024-01-30T17:45:52;7.63;;;3.95;;
41556;SDS011;27720;51.992;5.890;2024-01-30T17:48:57;8.23;;;3.92;;
41556;SDS011;27720;51.992;5.890;2024-01-30T17:58:23;5.78;;;3.13;;
41556;SDS011;27720;51.992;5.890;2024-01-30T19:45:33;3.38;;;1.10;;
41556;SDS011;27720;51.992;5.890;2024-01-30T19:47:59;2.00;;;0.82;;
41556;SDS011;27720;51.992;5.890;2024-01-30T19:50:25;1.95;;;0.80;;
41556;SDS011;27720;51.992;5.890;2024-01-30T19:52:51;2.83;;;0.90;;
41556;SDS011;27720;51.992;5.890;2024-01-30T19:55:16;4.13;;;1.00;;
41556;SDS011;27720;51.992;5.890;2024-01-30T19:57:48;5.93;;;1.23;;
41556;SDS011;27720;51.992;5.890;2024-01-30T20:00:14;3.55;;;0.95;;
41556;SDS011;27720;51.992;5.890;2024-01-30T20:02:40;4.57;;;0.70;;
41556;SDS011;27720;51.992;5.890;2024-01-30T20:05:06;3.58;;;1.10;;
41556;SDS011;27720;51.992;5.890;2024-01-30T20:07:32;2.47;;;0.88;;
41556;SDS011;27720;51.992;5.890;2024-01-30T20:09:57;2.55;;;1.20;;
41556;SDS011;27720;51.992;5.890;2024-01-30T20:12:23;4.20;;;0.90;;
41556;SDS011;27720;51.992;5.890;2024-01-30T20:14:52;4.55;;;1.00;;
41556;SDS011;27720;51.992;5.890;2024-01-30T20:17:18;10.50;;;1.55;;
41556;SDS011;27720;51.992;5.890;2024-01-30T20:19:43;2.38;;;0.98;;
41556;SDS011;27720;51.992;5.890;2024-01-30T20:22:13;2.67;;;0.95;;
41556;SDS011;27720;51.992;5.890;2024-01-30T20:24:40;1.83;;;1.00;;
41556;SDS011;27720;51.992;5.890;2024-01-30T20:27:08;6.55;;;1.20;;
41556;SDS011;27720;51.992;5.890;2024-01-30T20:29:33;5.03;;;1.20;;
41556;SDS011;27720;51.992;5.890;2024-01-30T20:32:02;1.45;;;0.65;;
41556;SDS011;27720;51.992;5.890;2024-01-30T20:34:31;2.22;;;1.17;;
41556;SDS011;27720;51.992;5.890;2024-01-30T20:36:57;4.30;;;1.20;;
41556;SDS011;27720;51.992;5.890;2024-01-30T20:39:22;2.45;;;0.90;;
41556;SDS011;27720;51.992;5.890;2024-01-30T20:41:50;5.30;;;0.70;;
41556;SDS011;27720;51.992;5.890;2024-01-30T20:44:16;5.15;;;0.98;;
41556;SDS011;27720;51.992;5.890;2024-01-30T20:46:45;5.35;;;1.20;;
41556;SDS011;27720;51.992;5.890;2024-01-30T20:49:11;5.45;;;0.95;;
41556;SDS011;27720;51.992;5.890;2024-01-30T20:51:36;3.13;;;1.00;;
41556;SDS011;27720;51.992;5.890;2024-01-30T20:54:02;5.00;;;0.95;;
41556;SDS011;27720;51.992;5.890;2024-01-30T20:56:28;4.47;;;1.80;;
41556;SDS011;27720;51.992;5.890;2024-01-30T20:58:55;4.68;;;1.08;;
41556;SDS011;27720;51.992;5.890;2024-01-30T21:01:24;3.67;;;0.80;;
41556;SDS011;27720;51.992;5.890;2024-01-30T21:03:50;6.00;;;1.10;;
41556;SDS011;27720;51.992;5.890;2024-01-30T21:06:15;5.20;;;1.25;;
41556;SDS011;27720;51.992;5.890;2024-01-30T21:08:41;3.67;;;0.85;;
41556;SDS011;27720;51.992;5.890;2024-01-30T21:11:07;4.32;;;0.90;;
41556;SDS011;27720;51.992;5.890;2024-01-30T21:13:34;5.90;;;1.70;;
41556;SDS011;27720;51.992;5.890;2024-01-30T21:15:59;6.72;;;1.52;;
41556;SDS011;27720;51.992;5.890;2024-01-30T21:18:25;7.70;;;1.10;;
41556;SDS011;27720;51.992;5.890;2024-01-30T21:20:51;7.20;;;1.67;;
41556;SDS011;27720;51.992;5.890;2024-01-30T21:23:18;6.00;;;1.52;;
41556;SDS011;27720;51.992;5.890;2024-01-30T21:25:47;3.67;;;1.25;;
41556;SDS011;27720;51.992;5.890;2024-01-30T21:28:13;7.70;;;1.45;;
41556;SDS011;27720;51.992;5.890;2024-01-30T21:30:39;5.20;;;1.23;;
41556;SDS011;27720;51.992;5.890;2024-01-30T21:33:05;7.10;;;1.58;;
41556;SDS011;27720;51.992;5.890;2024-01-30T21:35:30;5.75;;;0.95;;
41556;SDS011;27720;51.992;5.890;2024-01-30T21:37:57;6.55;;;1.17;;
41556;SDS011;27720;51.992;5.890;2024-01-30T21:40:26;13.50;;;1.15;;
